Time,TemperatureF,DewpointF,PressureIn,WindDirection,WindDirectionDegrees,WindSpeedMPH,WindSpeedGustMPH,Humidity,HourlyPrecipIn,Conditions,Clouds,dailyrainin,SoftwareType,DateUTC
2013-03-03 00:00:00,39.0,15.0,-100.00,SSE,166,3.0,4.0,37,0.00,,,0.00,,2013-03-03 07:00:00,
2013-03-03 00:42:00,39.0,15.0,-100.00,SSE,166,3.0,4.0,37,0.00,,,0.00,,2013-03-03 07:42:00,
2013-03-03 00:52:00,39.0,15.0,-100.00,SSE,166,3.0,4.0,37,0.00,,,0.00,,2013-03-03 07:52:00,
2013-03-03 01:00:00,38.0,15.0,-100.00,WSW,247,2.0,4.0,39,0.00,,,0.00,,2013-03-03 08:00:00,
2013-03-03 01:41:00,38.0,15.0,-100.00,WSW,247,2.0,4.0,39,0.00,,,0.00,,2013-03-03 08:41:00,
2013-03-03 01:54:00,38.0,15.0,-100.00,WSW,247,2.0,4.0,39,0.00,,,0.00,,2013-03-03 08:54:00,
2013-03-03 02:00:00,37.0,18.0,-100.00,WNW,299,0.0,2.0,45,0.00,,,0.00,,2013-03-03 09:00:00,
2013-03-03 02:41:00,37.0,18.0,-100.00,WNW,299,0.0,2.0,45,0.00,,,0.00,,2013-03-03 09:41:00,
2013-03-03 02:52:00,37.0,18.0,-100.00,WNW,299,0.0,2.0,45,0.00,,,0.00,,2013-03-03 09:52:00,
2013-03-03 03:00:00,40.0,20.0,-100.00,West,277,1.0,2.0,44,0.00,,,0.00,,2013-03-03 10:00:00,
2013-03-03 03:42:00,40.0,20.0,-100.00,West,277,1.0,2.0,44,0.00,,,0.00,,2013-03-03 10:42:00,
2013-03-03 03:52:00,40.0,20.0,-100.00,West,277,1.0,2.0,44,0.00,,,0.00,,2013-03-03 10:52:00,
2013-03-03 04:31:00,41.0,20.0,-100.00,West,273,11.0,18.0,42,0.00,,,0.00,,2013-03-03 11:31:00,
2013-03-03 05:00:00,40.0,19.0,-100.00,West,276,5.0,7.0,43,0.00,,,0.00,,2013-03-03 12:00:00,
2013-03-03 05:42:00,40.0,19.0,-100.00,West,276,5.0,7.0,43,0.00,,,0.00,,2013-03-03 12:42:00,
2013-03-03 05:53:00,40.0,19.0,-100.00,West,276,5.0,7.0,43,0.00,,,0.00,,2013-03-03 12:53:00,
2013-03-03 06:42:00,40.0,21.0,-100.00,West,262,5.0,7.0,45,0.00,,,0.00,,2013-03-03 13:42:00,
2013-03-03 06:52:00,40.0,21.0,-100.00,West,262,5.0,7.0,45,0.00,,,0.00,,2013-03-03 13:52:00,
2013-03-03 07:00:00,37.0,22.0,-100.00,WSW,243,3.0,5.0,54,0.00,,,0.00,,2013-03-03 14:00:00,
2013-03-03 07:42:00,37.0,22.0,-100.00,WSW,243,3.0,5.0,54,0.00,,,0.00,,2013-03-03 14:42:00,
2013-03-03 07:52:00,37.0,22.0,-100.00,WSW,243,3.0,5.0,54,0.00,,,0.00,,2013-03-03 14:52:00,
2013-03-03 08:00:00,37.0,23.0,-100.00,WSW,246,4.0,5.0,57,0.00,,,0.00,,2013-03-03 15:00:00,
2013-03-03 08:32:00,37.0,23.0,-100.00,WSW,246,4.0,5.0,57,0.00,,,0.00,,2013-03-03 15:32:00,
2013-03-03 08:42:00,37.0,23.0,-100.00,WSW,246,4.0,5.0,57,0.00,,,0.00,,2013-03-03 15:42:00,
2013-03-03 08:52:00,37.0,23.0,-100.00,WSW,246,4.0,5.0,57,0.00,,,0.00,,2013-03-03 15:52:00,
2013-03-03 09:42:00,43.0,19.0,-100.00,SSW,210,9.0,12.0,38,0.00,,,0.00,,2013-03-03 16:42:00,
2013-03-03 09:52:00,43.0,19.0,-100.00,SSW,210,9.0,12.0,38,0.00,,,0.00,,2013-03-03 16:52:00,
2013-03-03 10:00:00,44.0,18.0,-100.00,SW,218,4.0,7.0,35,0.00,,,0.00,,2013-03-03 17:00:00,
2013-03-03 10:42:00,44.0,18.0,-100.00,SW,218,4.0,7.0,35,0.00,,,0.00,,2013-03-03 17:42:00,
2013-03-03 10:52:00,44.0,18.0,-100.00,SW,218,4.0,7.0,35,0.00,,,0.00,,2013-03-03 17:52:00,
2013-03-03 11:00:00,45.0,20.0,-100.00,SW,216,7.0,12.0,38,0.00,,,0.00,,2013-03-03 18:00:00,
2013-03-03 11:31:00,45.0,20.0,-100.00,SW,216,7.0,12.0,38,0.00,,,0.00,,2013-03-03 18:31:00,
2013-03-03 11:42:00,45.0,20.0,-100.00,SW,216,7.0,12.0,38,0.00,,,0.00,,2013-03-03 18:42:00,
2013-03-03 11:52:00,45.0,20.0,-100.00,SW,216,7.0,12.0,38,0.00,,,0.00,,2013-03-03 18:52:00,
2013-03-03 12:00:00,43.0,22.0,-100.00,SW,225,14.0,19.0,43,0.00,,,0.00,,2013-03-03 19:00:00,
2013-03-03 12:42:00,43.0,22.0,-100.00,SW,225,14.0,19.0,43,0.00,,,0.00,,2013-03-03 19:42:00,
2013-03-03 12:52:00,43.0,22.0,-100.00,SW,225,14.0,19.0,43,0.00,,,0.00,,2013-03-03 19:52:00,
2013-03-03 13:00:00,40.0,25.0,-100.00,WSW,239,23.0,32.0,54,0.00,,,0.00,,2013-03-03 20:00:00,
2013-03-03 13:42:00,40.0,25.0,-100.00,WSW,239,23.0,32.0,54,0.00,,,0.00,,2013-03-03 20:42:00,
2013-03-03 13:52:00,40.0,25.0,-100.00,WSW,239,23.0,32.0,54,0.00,,,0.00,,2013-03-03 20:52:00,
2013-03-03 14:00:00,40.0,24.0,-100.00,WSW,238,25.0,33.0,51,0.00,,,0.00,,2013-03-03 21:00:00,
2013-03-03 14:41:00,40.0,24.0,-100.00,WSW,238,25.0,33.0,51,0.00,,,0.00,,2013-03-03 21:41:00,
2013-03-03 14:52:00,40.0,24.0,-100.00,WSW,238,25.0,33.0,51,0.00,,,0.00,,2013-03-03 21:52:00,
2013-03-03 15:00:00,38.0,27.0,-100.00,WSW,242,22.0,31.0,63,0.00,,,0.00,,2013-03-03 22:00:00,
2013-03-03 15:32:00,38.0,27.0,-100.00,WSW,242,22.0,31.0,63,0.00,,,0.00,,2013-03-03 22:32:00,
2013-03-03 15:42:00,38.0,27.0,-100.00,WSW,242,22.0,31.0,63,0.00,,,0.00,,2013-03-03 22:42:00,
2013-03-03 15:52:00,38.0,27.0,-100.00,WSW,242,22.0,31.0,63,0.00,,,0.00,,2013-03-03 22:52:00,
2013-03-03 16:00:00,42.0,18.0,-100.00,SW,229,26.0,43.0,38,0.02,,,0.02,,2013-03-03 23:00:00,
2013-03-03 16:31:00,42.0,18.0,-100.00,SW,229,26.0,43.0,38,0.02,,,0.02,,2013-03-03 23:31:00,
2013-03-03 16:41:00,42.0,18.0,-100.00,SW,229,26.0,43.0,38,0.02,,,0.02,,2013-03-03 23:41:00,
2013-03-03 16:52:00,42.0,18.0,-100.00,SW,229,26.0,43.0,38,0.02,,,0.02,,2013-03-03 23:52:00,
2013-03-03 17:00:00,38.0,20.0,-100.00,SW,230,30.0,42.0,47,0.05,,,0.07,,2013-03-04 00:00:00,
2013-03-03 17:32:00,38.0,20.0,-100.00,SW,230,30.0,42.0,47,0.05,,,0.07,,2013-03-04 00:32:00,
2013-03-03 17:42:00,38.0,20.0,-100.00,SW,230,30.0,42.0,47,0.05,,,0.07,,2013-03-04 00:42:00,
2013-03-03 17:52:00,38.0,20.0,-100.00,SW,230,30.0,42.0,47,0.05,,,0.07,,2013-03-04 00:52:00,
2013-03-03 18:00:00,38.0,16.0,-100.00,WSW,237,25.0,34.0,40,0.01,,,0.08,,2013-03-04 01:00:00,
2013-03-03 18:31:00,38.0,16.0,-100.00,WSW,237,25.0,34.0,40,0.01,,,0.08,,2013-03-04 01:31:00,
2013-03-03 18:42:00,38.0,16.0,-100.00,WSW,237,25.0,34.0,40,0.01,,,0.08,,2013-03-04 01:42:00,
2013-03-03 18:52:00,38.0,16.0,-100.00,WSW,237,25.0,34.0,40,0.01,,,0.08,,2013-03-04 01:52:00,
2013-03-03 19:00:00,38.0,14.0,-100.00,WSW,241,30.0,38.0,38,0.00,,,0.08,,2013-03-04 02:00:00,
2013-03-03 19:42:00,38.0,14.0,-100.00,WSW,241,30.0,38.0,38,0.00,,,0.08,,2013-03-04 02:42:00,
2013-03-03 19:52:00,38.0,14.0,-100.00,WSW,241,30.0,38.0,38,0.00,,,0.08,,2013-03-04 02:52:00,
2013-03-03 20:00:00,36.0,13.0,-100.00,SW,232,29.0,45.0,38,0.02,,,0.10,,2013-03-04 03:00:00,
2013-03-03 20:32:00,36.0,13.0,-100.00,SW,232,29.0,45.0,38,0.02,,,0.10,,2013-03-04 03:32:00,
2013-03-03 20:42:00,36.0,13.0,-100.00,SW,232,29.0,45.0,38,0.02,,,0.10,,2013-03-04 03:42:00,
2013-03-03 20:52:00,36.0,13.0,-100.00,SW,232,29.0,45.0,38,0.02,,,0.10,,2013-03-04 03:52:00,
2013-03-03 21:00:00,35.0,15.0,-100.00,WSW,238,27.0,36.0,44,-99.99,,,0.09,,2013-03-04 04:00:00,
2013-03-03 21:32:00,35.0,15.0,-100.00,WSW,238,27.0,36.0,44,-99.99,,,0.09,,2013-03-04 04:32:00,
2013-03-03 21:42:00,35.0,15.0,-100.00,WSW,238,27.0,36.0,44,-99.99,,,0.09,,2013-03-04 04:42:00,
2013-03-03 21:52:00,35.0,15.0,-100.00,WSW,238,27.0,36.0,44,-99.99,,,0.09,,2013-03-04 04:52:00,
2013-03-03 22:00:00,35.0,12.0,-100.00,NW,324,7.0,14.0,39,0.00,,,0.09,,2013-03-04 05:00:00,
2013-03-03 22:42:00,35.0,12.0,-100.00,NW,324,7.0,14.0,39,0.00,,,0.09,,2013-03-04 05:42:00,
2013-03-03 22:52:00,35.0,12.0,-100.00,NW,324,7.0,14.0,39,0.00,,,0.09,,2013-03-04 05:52:00,
2013-03-03 23:00:00,23.0,18.0,-100.00,ENE,61,16.0,20.0,81,0.00,,,0.09,,2013-03-04 06:00:00,
2013-03-03 23:31:00,23.0,18.0,-100.00,ENE,61,16.0,20.0,81,0.00,,,0.09,,2013-03-04 06:31:00,
2013-03-03 23:42:00,23.0,18.0,-100.00,ENE,61,16.0,20.0,81,0.00,,,0.09,,2013-03-04 06:42:00,
2013-03-03 23:52:00,23.0,18.0,-100.00,ENE,61,16.0,20.0,81,0.00,,,0.09,,2013-03-04 06:52:00,